Time;durP1;ratioP1;P1;durP2;ratioP2;P2;SDS_P1;SDS_P2;PMS_P1;PMS_P2;Temp;Humidity;BMP_temperature;BMP_pressure;BME280_temperature;BME280_humidity;BME280_pressure;Samples;Min_cycle;Max_cycle;Signal;HPM_P1;HPM_P2
2022/02/26 00:01:28;;;;;;;1.75;1.65;;;3.40;63.10;;;2.77;46.96;95646.66;6104260;23;20208;-82
2022/02/26 00:03:55;;;;;;;4.45;2.00;;;3.50;63.00;;;2.70;47.00;95634.19;6153859;23;20228;-82
2022/02/26 00:06:22;;;;;;;5.05;2.20;;;3.60;63.10;;;2.86;46.92;95662.25;6129390;23;20227;-83
2022/02/26 00:08:50;;;;;;;2.60;1.83;;;3.60;63.10;;;2.94;47.18;95663.41;6129623;23;20220;-81
2022/02/26 00:11:17;;;;;;;5.20;2.05;;;3.70;63.10;;;2.96;46.74;95662.31;6129203;23;20201;-82
2022/02/26 00:13:44;;;;;;;2.63;2.08;;;3.80;63.00;;;2.99;46.61;95662.09;6105096;23;20197;-81
2022/02/26 00:16:11;;;;;;;4.97;2.08;;;3.80;62.90;;;3.03;46.91;95673.84;6105079;23;20169;-83
2022/02/26 00:18:39;;;;;;;2.53;1.85;;;3.80;62.80;;;3.09;46.67;95671.69;6153746;23;20256;-83
2022/02/26 00:21:08;;;;;;;5.60;2.53;;;3.90;62.90;;;3.11;46.82;95668.00;6104565;23;20675;-82
2022/02/26 00:23:35;;;;;;;4.82;2.42;;;3.90;62.90;;;3.15;46.89;95677.19;6105211;23;20639;-82
2022/02/26 00:26:03;;;;;;;3.83;1.90;;;4.00;62.80;;;3.15;46.73;95673.75;6105216;23;20174;-83
2022/02/26 00:28:33;;;;;;;7.95;2.13;;;4.00;62.90;;;3.20;46.66;95684.59;6153631;23;20669;-82
2022/02/26 00:31:00;;;;;;;3.83;2.20;;;4.00;62.80;;;3.19;46.78;95675.97;6105187;23;20223;-83
2022/02/26 00:33:29;;;;;;;4.22;2.00;;;4.10;62.80;;;3.26;46.80;95688.44;6129709;23;20203;-82
2022/02/26 00:35:59;;;;;;;4.13;1.90;;;4.10;62.80;;;3.28;46.64;95689.13;6129811;23;20177;-83
2022/02/26 00:38:27;;;;;;;4.03;2.28;;;4.10;62.80;;;3.30;46.77;95688.06;6104616;23;20197;-82
2022/02/26 00:40:54;;;;;;;5.32;2.03;;;4.10;62.80;;;3.33;46.59;95687.81;6153249;23;20172;-82
2022/02/26 00:43:23;;;;;;;4.55;1.98;;;4.10;62.80;;;3.35;46.66;95696.28;6104378;23;20208;-82
2022/02/26 00:45:50;;;;;;;3.60;1.90;;;4.10;62.80;;;3.35;46.32;95688.50;6105520;23;20385;-83
2022/02/26 00:48:18;;;;;;;4.55;2.38;;;4.20;62.80;;;3.42;46.32;95700.94;6153536;23;20202;-82
2022/02/26 00:50:47;;;;;;;3.10;1.92;;;4.20;62.70;;;3.43;46.50;95707.78;6128294;23;20181;-83
2022/02/26 00:53:14;;;;;;;4.38;1.90;;;4.20;63.70;;;3.46;46.42;95703.16;6128298;23;20225;-83
2022/02/26 00:55:41;;;;;;;3.65;1.92;;;4.30;62.80;;;3.47;46.36;95701.41;6128727;23;20176;-83
2022/02/26 00:58:08;;;;;;;2.50;2.00;;;4.30;62.80;;;3.48;46.31;95695.28;6128970;23;20277;-82
2022/02/26 01:00:37;;;;;;;3.88;1.80;;;4.30;62.80;;;3.53;46.43;95703.47;6153551;23;20177;-83
2022/02/26 01:03:05;;;;;;;4.15;2.15;;;4.30;62.80;;;3.52;46.32;95694.88;6153602;23;20220;-83
2022/02/26 01:05:33;;;;;;;3.75;1.70;;;4.30;62.80;;;3.57;46.87;95697.06;6128725;23;20177;-83
2022/02/26 01:08:00;;;;;;;6.35;2.25;;;4.40;62.90;;;3.57;46.63;95702.25;6153364;23;20268;-83
2022/02/26 01:10:31;;;;;;;3.05;2.00;;;4.40;63.00;;;3.61;46.61;95703.63;6129531;23;20597;-83
2022/02/26 01:12:58;;;;;;;3.25;2.00;;;4.40;62.90;;;3.61;46.78;95703.63;6128811;23;20313;-83
2022/02/26 01:15:26;;;;;;;2.53;1.85;;;4.40;63.00;;;3.50;46.56;95685.56;6128343;23;20209;-83
2022/02/26 01:17:54;;;;;;;5.10;1.70;;;4.40;63.00;;;3.58;46.96;95696.13;6129199;23;20196;-83
2022/02/26 01:20:22;;;;;;;3.97;2.10;;;4.40;63.00;;;3.66;46.79;95711.03;6080668;23;20173;-82
2022/02/26 01:22:50;;;;;;;2.30;1.73;;;4.50;63.10;;;3.62;46.61;95697.50;6104618;23;20207;-83
2022/02/26 01:25:17;;;;;;;2.65;1.80;;;4.50;63.10;;;3.70;46.74;95709.84;6153403;23;20197;-83
2022/02/26 01:27:45;;;;;;;3.42;1.77;;;4.50;63.20;;;3.72;46.82;95701.94;6153286;23;20174;-82
2022/02/26 01:30:12;;;;;;;3.22;1.92;;;4.50;63.10;;;3.73;46.92;95711.38;6152600;23;20174;-82
2022/02/26 01:32:42;;;;;;;2.67;2.00;;;4.50;63.30;;;3.74;47.11;95706.03;6153453;23;20248;-83
2022/02/26 01:35:11;;;;;;;3.05;1.88;;;4.50;63.20;;;3.74;46.85;95711.22;6129216;23;20484;-82
2022/02/26 01:37:38;;;;;;;2.70;1.90;;;4.50;63.40;;;3.75;47.18;95707.69;6104465;23;20173;-83
2022/02/26 01:40:06;;;;;;;3.22;1.92;;;4.50;63.20;;;3.75;47.25;95705.09;6153342;23;20208;-82
2022/02/26 01:42:33;;;;;;;3.03;2.17;;;4.60;63.50;;;3.74;47.92;95703.44;6128180;23;20201;-83
2022/02/26 01:45:14;;;;;;;3.20;2.08;;;4.60;63.60;;;3.75;47.81;95707.69;6153431;23;20265;-82
2022/02/26 01:47:43;;;;;;;4.47;2.30;;;4.60;63.80;;;3.79;47.64;95713.44;6103456;23;20173;-83
2022/02/26 01:50:12;;;;;;;4.07;1.92;;;4.60;63.70;;;3.81;48.50;95721.91;6128831;23;20696;-82
2022/02/26 01:52:40;;;;;;;2.97;1.95;;;4.60;63.70;;;3.76;48.14;95700.72;6104654;23;20198;-82
2022/02/26 01:55:08;;;;;;;4.38;2.00;;;4.70;63.80;;;3.75;47.97;95705.09;6128572;23;20169;-82
2022/02/26 01:57:36;;;;;;;2.53;2.10;;;4.60;63.80;;;3.65;47.60;95683.44;6104405;23;20197;-83
2022/02/26 02:00:10;;;;;;;3.42;2.25;;;4.70;63.70;;;3.77;48.02;95700.59;6152505;23;20575;-83
2022/02/26 02:02:37;;;;;;;4.68;2.00;;;4.70;63.90;;;3.87;47.90;95717.97;6104378;23;20205;-83
2022/02/26 02:05:05;;;;;;;3.72;2.00;;;4.70;63.80;;;3.89;47.65;95716.88;6104576;23;20510;-83
2022/02/26 02:07:33;;;;;;;3.00;1.98;;;4.70;63.70;;;3.93;47.59;95717.44;6153356;23;20169;-83
2022/02/26 02:10:01;;;;;;;3.67;2.30;;;4.70;63.60;;;3.94;47.53;95714.75;6153316;23;20252;-82
2022/02/26 02:12:28;;;;;;;5.93;2.15;;;4.70;63.80;;;3.74;47.41;95682.69;6128150;23;20481;-82
2022/02/26 02:14:56;;;;;;;2.88;1.80;;;4.70;63.60;;;3.89;47.86;95710.88;6128638;23;20720;-83
2022/02/26 02:17:23;;;;;;;3.20;2.17;;;4.70;63.60;;;3.96;47.65;95714.59;6153204;23;20181;-83
2022/02/26 02:19:51;;;;;;;3.70;1.90;;;4.70;63.60;;;3.94;47.38;95712.16;6104703;23;20268;-83
2022/02/26 02:22:20;;;;;;;2.42;1.90;;;4.80;63.80;;;3.96;47.60;95712.00;6103960;23;20225;-82
2022/02/26 02:24:48;;;;;;;2.85;1.80;;;4.70;63.60;;;3.96;47.57;95705.03;6128585;23;20276;-83
2022/02/26 02:27:16;;;;;;;2.03;1.83;;;4.80;63.80;;;3.98;47.14;95713.50;6128706;23;20512;-83
2022/02/26 02:29:46;;;;;;;3.67;1.95;;;4.80;64.70;;;3.97;47.85;95714.47;6153225;23;20186;-83
2022/02/26 02:32:16;;;;;;;3.72;2.00;;;4.80;63.80;;;3.95;48.38;95718.16;6154452;23;20174;-82
2022/02/26 02:34:43;;;;;;;3.55;1.90;;;4.80;64.20;;;3.91;49.36;95714.19;6106459;23;20189;-82
2022/02/26 02:37:11;;;;;;;3.75;1.92;;;4.80;64.40;;;3.81;48.75;95709.75;6106414;23;20560;-82
2022/02/26 02:39:42;;;;;;;4.05;1.90;;;4.80;64.40;;;3.85;48.58;95712.91;6154657;23;20644;-83
2022/02/26 02:42:09;;;;;;;4.50;2.13;;;4.70;64.60;;;3.83;48.98;95720.00;6130147;23;20288;-83
2022/02/26 02:44:36;;;;;;;2.80;2.08;;;4.70;64.50;;;3.81;48.82;95725.31;6154166;23;20201;-82
2022/02/26 02:47:04;;;;;;;3.75;1.88;;;4.70;64.60;;;3.79;48.38;95729.81;6105842;23;20181;-83
2022/02/26 02:49:31;;;;;;;3.15;1.98;;;4.70;64.60;;;3.80;48.35;95723.69;6081601;23;20260;-82
2022/02/26 02:51:58;;;;;;;3.03;1.70;;;4.70;64.60;;;3.77;48.53;95717.94;6105134;23;20185;-82
2022/02/26 02:54:26;;;;;;;3.97;1.98;;;4.70;64.60;;;3.78;48.77;95727.34;6130765;23;20213;-83
2022/02/26 02:56:53;;;;;;;3.33;1.77;;;4.70;64.70;;;3.73;48.60;95719.16;6154688;23;20177;-83
2022/02/26 02:59:24;;;;;;;4.13;2.00;;;4.70;64.70;;;3.77;48.67;95725.72;6106395;23;20251;-83
2022/02/26 03:01:51;;;;;;;3.50;2.20;;;4.70;64.70;;;3.78;48.24;95727.34;6105807;23;20173;-82
2022/02/26 03:04:19;;;;;;;2.10;1.85;;;4.70;64.70;;;3.78;48.56;95728.16;6130556;23;20648;-83
2022/02/26 03:06:46;;;;;;;4.88;2.25;;;4.60;64.70;;;3.74;48.40;95718.19;6153957;23;20177;-83
2022/02/26 03:09:14;;;;;;;3.92;2.60;;;4.60;64.70;;;3.74;48.48;95724.19;6130273;23;20197;-83
2022/02/26 03:11:41;;;;;;;3.03;1.83;;;4.60;64.80;;;3.79;48.99;95740.19;6154927;23;20232;-83
2022/02/26 03:14:08;;;;;;;6.05;2.20;;;4.60;64.80;;;3.79;49.00;95739.38;6129113;23;20211;-82
2022/02/26 03:16:37;;;;;;;3.22;2.03;;;4.70;65.00;;;3.76;49.84;95743.06;6128845;23;20228;-83
2022/02/26 03:19:05;;;;;;;5.45;1.98;;;4.70;65.30;;;3.74;49.94;95744.94;6130139;23;20198;-83
2022/02/26 03:21:33;;;;;;;6.80;2.42;;;4.70;65.40;;;3.69;50.66;95745.34;6154045;23;20181;-84
2022/02/26 03:24:00;;;;;;;4.05;2.50;;;4.70;65.70;;;3.44;50.77;95718.03;6129295;23;20223;-82
2022/02/26 03:26:27;;;;;;;3.67;2.03;;;4.60;65.70;;;3.59;50.92;95744.47;6129780;23;20608;-83
2022/02/26 03:28:54;;;;;;;5.75;2.80;;;4.60;65.70;;;3.56;51.64;95744.72;6105212;23;20204;-82
2022/02/26 03:31:21;;;;;;;4.43;2.15;;;4.60;66.00;;;3.47;51.56;95746.31;6155841;23;20169;-83
2022/02/26 03:33:49;;;;;;;6.78;2.30;;;4.50;65.90;;;3.47;51.23;95748.09;6105470;23;20201;-82
2022/02/26 03:36:16;;;;;;;3.67;2.47;;;4.50;66.10;;;3.45;50.94;95750.78;6153905;23;20174;-83
2022/02/26 03:38:43;;;;;;;6.43;2.30;;;4.40;66.00;;;3.35;51.60;95739.53;6153790;23;20280;-82
2022/02/26 03:41:13;;;;;;;6.25;2.78;;;4.40;66.30;;;3.36;52.09;95752.38;6129676;23;20177;-83
2022/02/26 03:43:41;;;;;;;3.00;2.20;;;4.40;66.50;;;3.38;51.95;95759.22;6082058;23;20212;-83
2022/02/26 03:46:09;;;;;;;4.50;2.75;;;4.40;66.50;;;3.34;53.00;95763.81;6129675;23;20181;-83
2022/02/26 03:48:38;;;;;;;5.20;2.50;;;4.30;66.80;;;3.30;53.46;95765.84;6153039;23;20227;-83
2022/02/26 03:51:05;;;;;;;5.25;2.63;;;4.30;67.00;;;3.28;53.29;95766.91;6129953;23;20173;-83
2022/02/26 03:53:33;;;;;;;4.00;2.78;;;4.30;67.00;;;3.22;54.41;95772.59;6129045;23;20629;-81
2022/02/26 03:56:00;;;;;;;6.85;2.92;;;4.30;67.70;;;3.14;54.32;95761.09;6129593;23;20201;-82
2022/02/26 03:58:27;;;;;;;6.20;3.15;;;4.20;67.50;;;3.06;54.05;95750.50;6128985;23;20671;-82
2022/02/26 04:00:54;;;;;;;5.28;2.88;;;4.20;67.60;;;3.11;54.25;95765.69;6154150;23;20197;-83
2022/02/26 04:03:21;;;;;;;4.32;2.92;;;4.10;67.60;;;3.07;54.69;95772.91;6153788;23;20291;-83
2022/02/26 04:05:49;;;;;;;9.30;3.35;;;4.10;67.90;;;3.02;55.23;95769.88;6154034;23;20177;-83
2022/02/26 04:08:16;;;;;;;6.00;3.10;;;4.10;68.10;;;2.93;56.18;95780.94;6129681;23;20221;-83
2022/02/26 04:10:44;;;;;;;5.63;3.10;;;4.00;68.30;;;2.97;55.41;95777.19;6105031;23;20631;-83
2022/02/26 04:13:13;;;;;;;6.18;3.20;;;4.00;68.40;;;2.92;56.56;95781.91;6153677;23;20213;-83
2022/02/26 04:15:40;;;;;;;6.35;3.25;;;4.00;69.00;;;2.88;57.47;95781.31;6153983;23;20464;-82
2022/02/26 04:18:08;;;;;;;6.75;3.45;;;4.00;69.10;;;2.90;56.51;95786.41;6154061;23;20181;-82
2022/02/26 04:20:36;;;;;;;6.90;3.28;;;3.90;69.10;;;2.74;56.25;95772.06;6129352;23;20194;-83
2022/02/26 04:23:04;;;;;;;7.63;3.42;;;3.90;68.90;;;2.84;56.25;95791.09;6129375;23;20219;-83
2022/02/26 04:25:31;;;;;;;5.97;3.30;;;3.80;69.10;;;2.88;56.22;95784.75;6129726;23;20169;-83
2022/02/26 04:27:58;;;;;;;7.45;3.95;;;3.90;69.10;;;2.90;56.63;95797.56;6129136;23;20291;-83
2022/02/26 04:30:25;;;;;;;4.43;2.85;;;3.90;69.30;;;2.92;55.43;95794.84;6152897;23;20505;-83
2022/02/26 04:32:52;;;;;;;5.38;3.47;;;3.80;68.90;;;2.85;55.79;95789.34;6128748;23;20231;-83
2022/02/26 04:35:19;;;;;;;6.15;3.30;;;3.90;69.20;;;2.90;56.05;95797.56;6129065;23;20189;-83
2022/02/26 04:37:47;;;;;;;4.60;3.40;;;3.80;69.10;;;2.86;56.06;95794.41;6128879;23;20176;-82
2022/02/26 04:40:15;;;;;;;9.77;3.40;;;3.80;69.10;;;2.81;56.27;95795.72;6128969;23;20617;-83
2022/02/26 04:42:43;;;;;;;4.47;3.20;;;3.80;69.20;;;2.78;56.03;95796.78;6129350;23;20216;-83
2022/02/26 04:45:12;;;;;;;5.47;3.40;;;3.80;70.10;;;2.76;55.55;95795.25;6127929;23;20181;-83
2022/02/26 04:47:42;;;;;;;5.47;2.85;;;3.80;69.20;;;2.72;55.95;95810.22;6128805;23;20174;-82
2022/02/26 04:50:12;;;;;;;4.80;3.10;;;3.80;69.00;;;2.66;55.55;95801.19;6104790;23;20220;-82
2022/02/26 04:52:40;;;;;;;7.55;3.30;;;3.80;69.30;;;2.56;55.82;95792.47;6128550;23;20617;-83
2022/02/26 04:55:09;;;;;;;5.82;3.55;;;3.70;68.90;;;2.59;56.01;95800.00;6128968;23;20224;-83
2022/02/26 04:57:36;;;;;;;8.00;3.40;;;3.70;69.10;;;2.53;55.64;95806.47;6127969;23;20578;-83
2022/02/26 05:00:07;;;;;;;5.90;3.30;;;3.70;69.00;;;2.50;55.82;95811.06;6128355;23;20208;-82
2022/02/26 05:02:35;;;;;;;4.65;3.33;;;3.60;68.90;;;2.46;55.49;95818.25;6128873;23;20259;-83
2022/02/26 05:05:03;;;;;;;5.72;3.20;;;3.60;68.80;;;2.42;55.33;95821.19;6153159;23;20169;-82
2022/02/26 05:07:31;;;;;;;6.97;3.58;;;3.60;68.80;;;2.40;55.38;95832.53;6128873;23;20204;-83
2022/02/26 05:10:00;;;;;;;4.55;3.35;;;3.50;68.90;;;2.39;54.96;95838.63;6153815;23;20604;-82
2022/02/26 05:12:27;;;;;;;6.47;3.78;;;3.50;68.80;;;2.36;56.01;95840.63;6128727;23;20417;-82
2022/02/26 05:14:55;;;;;;;7.28;3.05;;;3.50;69.10;;;2.35;55.86;95844.16;6153213;23;20218;-82
2022/02/26 05:17:22;;;;;;;5.32;3.20;;;3.50;69.10;;;2.31;55.70;95843.56;6104568;23;20181;-82
2022/02/26 05:19:51;;;;;;;6.32;3.75;;;3.40;69.00;;;2.26;55.53;95845.69;6153370;23;20208;-82
2022/02/26 05:22:18;;;;;;;5.93;3.47;;;3.40;69.10;;;2.26;56.15;95863.81;6153402;23;20573;-82
2022/02/26 05:24:45;;;;;;;5.97;3.20;;;3.30;69.20;;;2.19;56.36;95847.91;6128937;23;20607;-83
2022/02/26 05:27:13;;;;;;;9.23;3.70;;;3.40;69.50;;;2.26;56.73;95858.63;6128128;23;20265;-82
2022/02/26 05:29:41;;;;;;;6.03;3.63;;;3.30;69.60;;;2.29;56.16;95863.56;6153444;23;20201;-82
2022/02/26 05:32:09;;;;;;;6.75;3.38;;;3.30;69.70;;;2.31;56.04;95863.47;6153337;23;20208;-83
2022/02/26 05:34:36;;;;;;;5.60;3.17;;;3.30;69.70;;;2.33;55.88;95867.59;6104903;23;20522;-82
2022/02/26 05:37:04;;;;;;;5.28;3.15;;;3.30;69.70;;;2.29;55.88;95863.56;6128770;23;20663;-83
2022/02/26 05:39:31;;;;;;;5.03;3.25;;;3.30;69.70;;;2.37;55.72;95868.97;6104779;23;20286;-82
2022/02/26 05:41:58;;;;;;;7.72;3.40;;;3.30;69.60;;;2.42;55.90;95873.81;6129070;23;20193;-82
2022/02/26 05:44:25;;;;;;;4.95;3.08;;;3.30;69.80;;;2.39;55.75;95863.69;6128651;23;20209;-82
2022/02/26 05:46:52;;;;;;;7.85;3.28;;;3.40;69.80;;;2.45;55.65;95880.53;6128036;23;20173;-83
2022/02/26 05:49:20;;;;;;;6.45;3.35;;;3.40;69.70;;;2.45;55.78;95883.13;6153408;23;20211;-83
2022/02/26 05:51:47;;;;;;;5.82;3.28;;;3.40;69.70;;;2.44;55.63;95884.06;6129122;23;20169;-83
2022/02/26 05:54:14;;;;;;;5.90;3.25;;;3.40;69.70;;;2.42;55.67;95880.75;6128780;23;20613;-83
2022/02/26 05:56:41;;;;;;;5.47;3.38;;;3.40;69.70;;;2.42;57.23;95886.75;6104403;23;20616;-83
2022/02/26 05:59:08;;;;;;;5.90;3.30;;;3.40;70.10;;;2.38;57.04;95885.34;6128892;23;20193;-84
2022/02/26 06:01:36;;;;;;;5.22;3.13;;;3.40;70.20;;;2.42;56.94;95889.34;6153554;23;20209;-83
2022/02/26 06:04:03;;;;;;;5.43;3.05;;;3.40;70.10;;;2.43;56.98;95900.53;6128410;23;20256;-83
2022/02/26 06:06:31;;;;;;;5.72;3.38;;;3.40;70.10;;;2.44;56.67;95903.00;6130855;23;20204;-83
2022/02/26 06:08:58;;;;;;;6.00;3.20;;;3.40;70.10;;;2.48;56.77;95903.56;6130854;23;20190;-82
2022/02/26 06:11:25;;;;;;;5.50;3.50;;;3.40;70.20;;;2.54;57.16;95906.53;6130900;23;20177;-83
2022/02/26 06:13:53;;;;;;;10.48;3.60;;;3.40;70.60;;;2.61;56.94;95913.84;6154117;23;20683;-82
2022/02/26 06:16:21;;;;;;;5.00;3.28;;;3.50;70.70;;;2.66;56.70;95914.31;6130937;23;20201;-82
2022/02/26 06:18:48;;;;;;;3.80;2.72;;;3.50;70.70;;;2.68;56.79;95917.59;6105914;23;20244;-82
2022/02/26 06:21:15;;;;;;;4.15;3.30;;;3.50;70.60;;;2.74;56.82;95922.31;6130626;23;20173;-82
2022/02/26 06:23:43;;;;;;;4.60;2.92;;;3.60;70.80;;;2.77;56.40;95927.28;6129683;23;20289;-82
2022/02/26 06:26:10;;;;;;;5.10;3.42;;;3.60;70.70;;;2.74;56.70;95917.13;6155146;23;20212;-83
2022/02/26 06:28:37;;;;;;;7.13;3.33;;;3.60;70.90;;;2.86;57.62;95943.88;6155007;23;20185;-82
2022/02/26 06:31:04;;;;;;;7.13;2.80;;;3.60;71.30;;;2.92;57.18;95952.91;6130508;23;20201;-82
2022/02/26 06:33:31;;;;;;;6.22;3.13;;;3.70;71.30;;;2.89;57.57;95938.44;6128845;23;20216;-82
2022/02/26 06:35:59;;;;;;;7.22;3.60;;;3.70;71.40;;;3.01;57.46;95955.63;6106080;23;20178;-83
2022/02/26 06:38:26;;;;;;;4.28;2.85;;;3.70;71.40;;;3.07;57.04;95951.75;6129685;23;20252;-83
2022/02/26 06:40:53;;;;;;;4.88;2.90;;;3.80;71.50;;;3.07;57.26;95949.16;6154196;23;20182;-83
2022/02/26 06:43:20;;;;;;;4.07;2.63;;;3.80;71.50;;;3.08;57.10;95944.81;6152310;23;20211;-82
2022/02/26 06:45:47;;;;;;;4.75;3.28;;;3.90;71.70;;;3.15;56.86;95948.53;6154128;23;20605;-82
2022/02/26 06:48:15;;;;;;;6.05;2.92;;;3.90;71.60;;;3.24;57.34;95965.16;6154422;23;20185;-83
2022/02/26 06:50:42;;;;;;;6.50;3.33;;;4.00;71.70;;;3.25;57.28;95959.00;6154028;23;20181;-81
2022/02/26 06:53:09;;;;;;;5.00;3.20;;;4.00;71.70;;;3.27;57.16;95960.56;6106003;23;20189;-82
2022/02/26 06:55:36;;;;;;;6.95;3.22;;;4.00;71.70;;;3.28;58.22;95959.59;6105419;23;20182;-83
2022/02/26 06:58:03;;;;;;;5.38;2.95;;;4.00;71.70;;;3.32;57.64;95965.38;6153935;23;20277;-83
2022/02/26 07:00:32;;;;;;;5.88;2.75;;;4.10;71.70;;;3.36;57.28;95964.19;6154251;23;20272;-82
2022/02/26 07:02:59;;;;;;;5.47;2.80;;;4.10;71.70;;;3.39;57.04;95974.31;6105508;23;20190;-83
2022/02/26 07:05:27;;;;;;;6.38;3.63;;;4.10;71.70;;;3.35;57.49;95962.53;6105836;23;20244;-83
2022/02/26 07:07:54;;;;;;;5.72;3.03;;;4.20;71.80;;;3.32;57.31;95961.03;6130080;23;20228;-83
2022/02/26 07:10:21;;;;;;;4.72;2.75;;;4.20;71.80;;;3.52;57.27;95981.97;6154571;23;20181;-84
2022/02/26 07:12:48;;;;;;;5.32;2.50;;;4.20;71.80;;;3.56;57.15;95983.34;6105568;23;20256;-82
2022/02/26 07:15:15;;;;;;;5.72;2.97;;;4.30;71.90;;;3.61;57.92;95986.41;6154460;23;20177;-83
2022/02/26 07:17:42;;;;;;;6.57;2.85;;;4.30;71.80;;;3.66;57.29;95992.06;6128804;23;20645;-82
2022/02/26 07:20:10;;;;;;;5.30;2.70;;;4.30;71.90;;;3.72;57.29;95995.94;6154096;23;20507;-83
2022/02/26 07:22:38;;;;;;;7.20;3.40;;;4.40;71.90;;;3.73;57.77;95984.59;6128939;23;20177;-83
2022/02/26 07:25:07;;;;;;;5.93;3.08;;;4.50;72.00;;;3.80;57.63;96001.34;6129561;23;20197;-83
2022/02/26 07:27:34;;;;;;;5.85;3.13;;;4.50;72.00;;;3.83;57.17;95993.31;6129824;23;20178;-83
2022/02/26 07:30:02;;;;;;;8.13;3.20;;;4.50;72.00;;;3.93;57.01;96005.53;6129240;23;20686;-81
2022/02/26 07:32:29;;;;;;;6.65;3.08;;;4.50;72.00;;;3.97;57.24;95999.16;6082235;23;20504;-82
2022/02/26 07:34:59;;;;;;;4.75;3.08;;;4.60;72.10;;;4.06;57.04;96002.78;6129873;23;20723;-83
2022/02/26 07:37:26;;;;;;;8.52;3.30;;;4.60;72.10;;;4.13;57.52;96017.75;6130125;23;20177;-83
2022/02/26 07:39:54;;;;;;;5.05;3.33;;;4.70;72.20;;;4.22;57.17;96017.94;6129658;23;20531;-82
2022/02/26 07:42:21;;;;;;;8.52;3.78;;;4.70;72.20;;;4.30;57.41;96020.75;6104457;23;20634;-81
2022/02/26 07:44:48;;;;;;;7.25;3.47;;;4.80;72.20;;;4.37;57.05;96016.72;6153609;23;20660;-82
2022/02/26 07:47:15;;;;;;;6.38;3.33;;;4.80;72.30;;;4.42;56.82;96014.53;6129464;23;20180;-82
2022/02/26 07:49:42;;;;;;;5.68;3.47;;;4.90;72.30;;;4.48;56.89;96014.03;6128436;23;20510;-82
2022/02/26 07:52:23;;;;;;;8.40;3.60;;;5.00;72.30;;;4.52;56.82;96021.56;6132244;23;20177;-83
2022/02/26 07:54:51;;;;;;;4.68;3.38;;;5.00;72.40;;;4.51;56.66;96017.34;6129920;23;20198;-83
2022/02/26 07:57:18;;;;;;;5.75;3.70;;;5.10;72.10;;;4.48;56.88;96014.03;6105401;23;20170;-82
2022/02/26 07:59:45;;;;;;;6.25;3.30;;;5.10;73.00;;;4.51;56.83;96018.16;6129684;23;20201;-82
2022/02/26 08:02:13;;;;;;;5.63;3.47;;;5.10;73.00;;;4.54;56.80;96028.31;6130106;23;20201;-84
2022/02/26 08:04:40;;;;;;;5.28;3.28;;;5.10;72.00;;;4.50;56.88;96026.91;6154460;23;20632;-86
2022/02/26 08:07:08;;;;;;;6.43;3.45;;;5.20;72.10;;;4.53;57.50;96024.06;6130030;23;20181;-86
2022/02/26 08:09:35;;;;;;;6.53;3.35;;;5.20;72.10;;;4.49;56.50;96020.03;6105108;23;20438;-84
2022/02/26 08:12:02;;;;;;;6.95;2.90;;;5.20;71.80;;;4.43;56.74;96020.56;6129813;23;20181;-83
2022/02/26 08:14:29;;;;;;;5.82;3.17;;;5.20;71.80;;;4.55;56.79;96027.31;6154196;23;20201;-83
2022/02/26 08:17:02;;;;;;;6.78;3.58;;;5.20;71.60;;;4.62;56.17;96035.47;6106180;23;20181;-83
2022/02/26 08:19:29;;;;;;;5.78;3.05;;;5.20;71.50;;;4.59;56.55;96020.09;6129380;23;20196;-84
2022/02/26 08:21:58;;;;;;;4.60;3.13;;;5.30;71.50;;;4.65;56.39;96030.84;6129864;23;20173;-83
2022/02/26 08:24:25;;;;;;;5.97;3.35;;;5.30;71.40;;;4.72;56.54;96040.72;6129386;23;20256;-84
2022/02/26 08:26:53;;;;;;;6.85;3.33;;;5.40;71.50;;;4.60;56.31;96019.16;6129398;23;20165;-85
2022/02/26 08:29:20;;;;;;;8.15;3.28;;;5.40;71.40;;;4.76;56.18;96042.09;6130602;23;20191;-84
2022/02/26 08:31:47;;;;;;;4.95;3.05;;;5.40;71.40;;;4.80;56.08;96044.31;6129736;23;20170;-85
2022/02/26 08:34:15;;;;;;;8.18;3.50;;;5.40;71.30;;;4.80;55.69;96033.13;6129354;23;20535;-84
2022/02/26 08:36:43;;;;;;;7.30;3.30;;;5.40;71.40;;;4.92;56.27;96060.69;6128466;23;20189;-83
2022/02/26 08:39:11;;;;;;;4.75;3.00;;;5.50;71.30;;;4.97;55.90;96052.50;6104171;23;20665;-84
2022/02/26 08:41:38;;;;;;;5.50;2.90;;;5.50;71.30;;;4.83;55.73;96027.63;6104091;23;20257;-84
2022/02/26 08:44:06;;;;;;;7.53;3.30;;;5.60;71.20;;;5.06;55.71;96058.69;6129385;23;20201;-84
2022/02/26 08:46:34;;;;;;;8.07;3.55;;;5.60;71.10;;;4.97;56.05;96040.31;6129138;23;20176;-85
2022/02/26 08:49:03;;;;;;;7.45;3.28;;;5.60;71.00;;;5.09;55.62;96063.63;6154577;23;20265;-85
2022/02/26 08:51:30;;;;;;;6.53;3.13;;;5.70;71.10;;;5.18;55.60;96070.66;6154192;23;20184;-84
2022/02/26 08:53:57;;;;;;;6.68;3.28;;;5.70;71.00;;;5.21;55.33;96060.00;6129472;23;20200;-84
2022/02/26 08:56:25;;;;;;;7.05;3.30;;;5.70;71.00;;;5.26;55.33;96065.66;6128260;23;20243;-84
2022/02/26 08:58:53;;;;;;;8.15;3.15;;;5.80;71.00;;;5.32;55.05;96074.69;6128224;23;20201;-84
2022/02/26 09:01:21;;;;;;;5.20;2.85;;;5.80;70.90;;;5.24;54.91;96051.94;6104960;23;20213;-84
2022/02/26 09:03:50;;;;;;;8.55;2.90;;;5.90;70.90;;;5.34;55.09;96058.97;6128970;23;20516;-84
2022/02/26 09:06:21;;;;;;;8.82;3.25;;;5.90;70.80;;;5.52;54.82;96069.59;6105564;23;20177;-85
2022/02/26 09:08:48;;;;;;;9.00;3.30;;;6.00;70.80;;;5.51;54.76;96068.75;6129160;23;20216;-84
2022/02/26 09:11:15;;;;;;;5.40;2.88;;;6.00;70.70;;;5.62;55.07;96075.63;6129966;23;20177;-84
2022/02/26 09:13:45;;;;;;;6.30;3.30;;;6.00;70.70;;;5.56;54.74;96050.13;6129135;23;20676;-85
2022/02/26 09:16:14;;;;;;;6.07;3.03;;;6.10;70.90;;;5.74;54.49;96056.34;6080896;23;20223;-84
2022/02/26 09:18:43;;;;;;;5.35;2.90;;;6.20;71.00;;;6.04;54.62;96074.66;6104874;23;20185;-84
2022/02/26 09:21:13;;;;;;;8.65;3.20;;;6.30;71.10;;;6.20;54.37;96081.94;6081800;23;20181;-84
2022/02/26 09:23:40;;;;;;;6.47;3.00;;;6.30;70.90;;;6.13;54.14;96065.22;6104668;23;20569;-85
2022/02/26 09:26:08;;;;;;;6.75;2.72;;;6.40;70.70;;;6.33;53.95;96079.91;6105323;23;20181;-86
2022/02/26 09:28:40;;;;;;;5.55;2.97;;;6.50;70.60;;;6.36;54.07;96078.81;6129513;23;20198;-86
2022/02/26 09:31:10;;;;;;;9.45;3.40;;;6.60;70.40;;;6.40;53.64;96078.41;6153690;23;20209;-85
2022/02/26 09:33:38;;;;;;;10.75;3.20;;;6.70;70.30;;;6.43;53.67;96081.69;6104213;23;20200;-85
2022/02/26 09:36:08;;;;;;;8.10;3.30;;;6.70;70.10;;;6.29;53.44;96065.50;6153590;23;20490;-85
2022/02/26 09:38:38;;;;;;;9.65;3.67;;;6.80;69.80;;;6.37;53.13;96081.31;6104961;23;20252;-85
2022/02/26 09:41:07;;;;;;;8.68;3.10;;;6.80;69.60;;;6.32;52.95;96088.69;6105666;23;20169;-84
2022/02/26 09:43:35;;;;;;;7.68;3.20;;;6.80;69.40;;;6.28;53.01;96092.53;6105944;23;20209;-86
2022/02/26 09:46:05;;;;;;;9.40;2.83;;;6.80;69.30;;;6.21;53.11;96096.63;6107158;23;20181;-86
2022/02/26 09:48:32;;;;;;;5.93;2.80;;;6.80;69.20;;;6.17;53.07;96106.50;6131234;23;20193;-85
2022/02/26 09:51:00;;;;;;;7.55;2.90;;;6.80;69.10;;;5.99;53.16;96087.28;6107822;23;20658;-85
2022/02/26 09:53:27;;;;;;;5.72;2.60;;;6.80;69.00;;;6.01;52.83;96098.38;6131115;23;20197;-85
2022/02/26 09:55:57;;;;;;;7.38;2.97;;;6.70;69.00;;;5.98;52.97;96103.81;6131582;23;20243;-85
2022/02/26 09:58:25;;;;;;;9.93;3.25;;;6.60;69.00;;;5.83;53.26;96085.97;6130693;23;20659;-85
2022/02/26 10:00:52;;;;;;;7.00;2.83;;;6.60;69.20;;;6.08;53.07;96115.13;6107452;23;20232;-85
2022/02/26 10:03:36;;;;;;;7.47;2.80;;;6.60;69.30;;;6.18;53.07;96120.34;6131134;23;20201;-85
2022/02/26 10:06:17;;;;;;;8.50;2.90;;;6.60;69.30;;;6.26;53.00;96112.66;6156114;23;20185;-86
2022/02/26 10:08:51;;;;;;;7.38;2.70;;;6.70;69.50;;;6.36;53.14;96103.09;6156145;23;20264;-85
2022/02/26 10:11:36;;;;;;;6.65;2.63;;;6.70;69.70;;;6.56;52.86;96106.53;6106832;23;20200;-85
2022/02/26 10:14:11;;;;;;;8.95;2.65;;;6.90;69.90;;;6.66;52.63;96111.75;6155213;23;20197;-86
2022/02/26 10:16:51;;;;;;;8.63;3.17;;;6.90;69.60;;;6.70;51.85;96107.91;6131244;23;20177;-85
2022/02/26 10:19:29;;;;;;;6.50;2.63;;;7.00;69.10;;;6.66;51.95;96106.53;6154857;23;20189;-84
2022/02/26 10:22:01;;;;;;;10.88;3.38;;;7.00;68.80;;;6.61;51.57;96105.31;6129058;23;20177;-84
2022/02/26 10:24:30;;;;;;;7.25;3.33;;;7.00;68.20;;;6.53;51.42;96108.56;6128824;23;20229;-85
2022/02/26 10:27:03;;;;;;;9.73;3.45;;;7.00;68.10;;;6.48;51.71;96108.16;6105833;23;20224;-85
2022/02/26 10:29:36;;;;;;;8.63;2.90;;;7.00;68.40;;;6.47;51.98;96101.31;6130520;23;20564;-85
2022/02/26 10:32:06;;;;;;;7.07;2.63;;;7.00;68.40;;;6.47;52.26;96104.75;6131058;23;20261;-84
2022/02/26 10:34:38;;;;;;;8.63;3.20;;;7.00;68.40;;;6.52;51.46;96106.97;6130745;23;20208;-84
2022/02/26 10:37:19;;;;;;;8.05;2.80;;;7.00;68.00;;;6.51;51.83;96105.31;6107194;23;20181;-84